sensor_id;sensor_type;location;lat;lon;timestamp;P1;durP1;ratioP1;P2;durP2;ratioP2
51382;SDS011;37475;43.358;1.248;2022-07-06T00:01:38;9.70;;;3.58;;
51382;SDS011;37475;43.358;1.248;2022-07-06T00:04:04;8.07;;;3.70;;
51382;SDS011;37475;43.358;1.248;2022-07-06T00:06:30;9.52;;;3.88;;
51382;SDS011;37475;43.358;1.248;2022-07-06T00:08:57;9.38;;;3.58;;
51382;SDS011;37475;43.358;1.248;2022-07-06T00:11:23;9.18;;;3.20;;
51382;SDS011;37475;43.358;1.248;2022-07-06T00:13:49;9.27;;;3.45;;
51382;SDS011;37475;43.358;1.248;2022-07-06T00:16:16;10.00;;;3.75;;
51382;SDS011;37475;43.358;1.248;2022-07-06T00:18:43;11.98;;;3.40;;
51382;SDS011;37475;43.358;1.248;2022-07-06T00:21:10;15.45;;;3.88;;
51382;SDS011;37475;43.358;1.248;2022-07-06T00:23:36;9.57;;;3.85;;
51382;SDS011;37475;43.358;1.248;2022-07-06T00:26:02;10.60;;;4.07;;
51382;SDS011;37475;43.358;1.248;2022-07-06T00:28:28;12.90;;;4.30;;
51382;SDS011;37475;43.358;1.248;2022-07-06T00:30:54;9.18;;;3.67;;
51382;SDS011;37475;43.358;1.248;2022-07-06T00:33:20;8.32;;;3.50;;
51382;SDS011;37475;43.358;1.248;2022-07-06T00:35:46;9.10;;;3.60;;
51382;SDS011;37475;43.358;1.248;2022-07-06T00:38:13;12.35;;;3.70;;
51382;SDS011;37475;43.358;1.248;2022-07-06T00:40:39;11.93;;;3.90;;
51382;SDS011;37475;43.358;1.248;2022-07-06T00:43:04;10.27;;;3.78;;
51382;SDS011;37475;43.358;1.248;2022-07-06T00:45:30;9.57;;;3.72;;
51382;SDS011;37475;43.358;1.248;2022-07-06T00:47:56;9.77;;;3.80;;
51382;SDS011;37475;43.358;1.248;2022-07-06T00:50:22;9.10;;;4.10;;
51382;SDS011;37475;43.358;1.248;2022-07-06T00:52:49;9.73;;;3.60;;
51382;SDS011;37475;43.358;1.248;2022-07-06T00:55:29;11.10;;;4.28;;
51382;SDS011;37475;43.358;1.248;2022-07-06T00:58:02;12.50;;;4.25;;
51382;SDS011;37475;43.358;1.248;2022-07-06T01:00:29;11.43;;;3.80;;
51382;SDS011;37475;43.358;1.248;2022-07-06T01:02:56;9.23;;;3.85;;
51382;SDS011;37475;43.358;1.248;2022-07-06T01:05:22;8.32;;;3.65;;
51382;SDS011;37475;43.358;1.248;2022-07-06T01:07:49;6.60;;;3.58;;
51382;SDS011;37475;43.358;1.248;2022-07-06T01:10:18;7.95;;;3.97;;
51382;SDS011;37475;43.358;1.248;2022-07-06T01:12:46;8.93;;;3.80;;
51382;SDS011;37475;43.358;1.248;2022-07-06T01:15:23;9.02;;;3.78;;
51382;SDS011;37475;43.358;1.248;2022-07-06T01:17:50;10.30;;;4.10;;
51382;SDS011;37475;43.358;1.248;2022-07-06T01:20:20;12.88;;;3.92;;
51382;SDS011;37475;43.358;1.248;2022-07-06T01:22:49;7.60;;;3.75;;
51382;SDS011;37475;43.358;1.248;2022-07-06T01:25:17;10.10;;;3.83;;
51382;SDS011;37475;43.358;1.248;2022-07-06T01:27:44;7.82;;;4.15;;
51382;SDS011;37475;43.358;1.248;2022-07-06T01:30:12;9.48;;;3.70;;
51382;SDS011;37475;43.358;1.248;2022-07-06T01:32:40;7.53;;;3.97;;
51382;SDS011;37475;43.358;1.248;2022-07-06T01:35:07;8.45;;;3.80;;
51382;SDS011;37475;43.358;1.248;2022-07-06T01:37:35;9.70;;;3.75;;
51382;SDS011;37475;43.358;1.248;2022-07-06T01:40:02;8.32;;;3.97;;
51382;SDS011;37475;43.358;1.248;2022-07-06T01:42:30;11.85;;;4.60;;
51382;SDS011;37475;43.358;1.248;2022-07-06T01:44:57;10.93;;;4.30;;
51382;SDS011;37475;43.358;1.248;2022-07-06T01:47:23;9.40;;;4.43;;
51382;SDS011;37475;43.358;1.248;2022-07-06T01:49:49;10.23;;;4.28;;
51382;SDS011;37475;43.358;1.248;2022-07-06T01:52:14;7.60;;;4.70;;
51382;SDS011;37475;43.358;1.248;2022-07-06T01:54:41;7.50;;;4.47;;
51382;SDS011;37475;43.358;1.248;2022-07-06T01:57:07;7.82;;;4.35;;
51382;SDS011;37475;43.358;1.248;2022-07-06T01:59:32;8.35;;;5.15;;
51382;SDS011;37475;43.358;1.248;2022-07-06T02:01:58;8.70;;;4.70;;
51382;SDS011;37475;43.358;1.248;2022-07-06T02:04:24;7.75;;;4.22;;
51382;SDS011;37475;43.358;1.248;2022-07-06T02:06:50;9.20;;;4.40;;
51382;SDS011;37475;43.358;1.248;2022-07-06T02:09:16;8.60;;;3.55;;
51382;SDS011;37475;43.358;1.248;2022-07-06T02:11:42;8.02;;;3.95;;
51382;SDS011;37475;43.358;1.248;2022-07-06T02:14:08;8.60;;;3.63;;
51382;SDS011;37475;43.358;1.248;2022-07-06T02:16:34;8.18;;;3.92;;
51382;SDS011;37475;43.358;1.248;2022-07-06T02:19:01;7.15;;;4.03;;
51382;SDS011;37475;43.358;1.248;2022-07-06T02:21:27;7.60;;;4.00;;
51382;SDS011;37475;43.358;1.248;2022-07-06T02:23:53;8.82;;;3.63;;
51382;SDS011;37475;43.358;1.248;2022-07-06T02:26:19;11.15;;;4.28;;
51382;SDS011;37475;43.358;1.248;2022-07-06T02:28:45;9.88;;;4.07;;
51382;SDS011;37475;43.358;1.248;2022-07-06T02:31:12;7.97;;;3.88;;
51382;SDS011;37475;43.358;1.248;2022-07-06T02:33:39;7.70;;;3.60;;
51382;SDS011;37475;43.358;1.248;2022-07-06T02:36:05;5.75;;;3.60;;
51382;SDS011;37475;43.358;1.248;2022-07-06T02:38:32;7.05;;;3.88;;
51382;SDS011;37475;43.358;1.248;2022-07-06T02:40:58;8.15;;;3.92;;
51382;SDS011;37475;43.358;1.248;2022-07-06T02:43:24;9.63;;;3.65;;
51382;SDS011;37475;43.358;1.248;2022-07-06T02:45:50;9.20;;;4.07;;
51382;SDS011;37475;43.358;1.248;2022-07-06T02:48:15;7.50;;;3.53;;
51382;SDS011;37475;43.358;1.248;2022-07-06T02:50:42;7.78;;;3.78;;
51382;SDS011;37475;43.358;1.248;2022-07-06T02:53:08;10.15;;;3.90;;
51382;SDS011;37475;43.358;1.248;2022-07-06T02:55:34;7.32;;;3.17;;
51382;SDS011;37475;43.358;1.248;2022-07-06T02:58:00;5.03;;;3.40;;
51382;SDS011;37475;43.358;1.248;2022-07-06T03:00:25;7.80;;;3.38;;
51382;SDS011;37475;43.358;1.248;2022-07-06T03:02:51;9.63;;;3.88;;
51382;SDS011;37475;43.358;1.248;2022-07-06T03:05:17;5.95;;;3.65;;
51382;SDS011;37475;43.358;1.248;2022-07-06T03:07:43;6.97;;;3.35;;
51382;SDS011;37475;43.358;1.248;2022-07-06T03:10:09;8.43;;;3.67;;
51382;SDS011;37475;43.358;1.248;2022-07-06T03:12:35;7.75;;;3.63;;
51382;SDS011;37475;43.358;1.248;2022-07-06T03:15:00;7.85;;;3.67;;
51382;SDS011;37475;43.358;1.248;2022-07-06T03:17:26;7.55;;;3.70;;
51382;SDS011;37475;43.358;1.248;2022-07-06T03:19:52;11.07;;;3.30;;
51382;SDS011;37475;43.358;1.248;2022-07-06T03:22:18;7.15;;;3.50;;
51382;SDS011;37475;43.358;1.248;2022-07-06T03:24:44;9.68;;;3.78;;
51382;SDS011;37475;43.358;1.248;2022-07-06T03:27:09;4.95;;;3.03;;
51382;SDS011;37475;43.358;1.248;2022-07-06T03:29:35;13.63;;;3.25;;
51382;SDS011;37475;43.358;1.248;2022-07-06T03:32:01;8.15;;;3.00;;
51382;SDS011;37475;43.358;1.248;2022-07-06T03:34:27;5.50;;;2.85;;
51382;SDS011;37475;43.358;1.248;2022-07-06T03:36:53;5.68;;;2.85;;
51382;SDS011;37475;43.358;1.248;2022-07-06T03:39:19;5.40;;;2.60;;
51382;SDS011;37475;43.358;1.248;2022-07-06T03:41:45;5.55;;;2.65;;
51382;SDS011;37475;43.358;1.248;2022-07-06T03:44:10;5.25;;;2.58;;
51382;SDS011;37475;43.358;1.248;2022-07-06T03:46:36;5.85;;;2.60;;
51382;SDS011;37475;43.358;1.248;2022-07-06T03:49:02;6.40;;;2.88;;
51382;SDS011;37475;43.358;1.248;2022-07-06T03:51:28;6.45;;;2.42;;
51382;SDS011;37475;43.358;1.248;2022-07-06T03:53:54;6.70;;;2.80;;
51382;SDS011;37475;43.358;1.248;2022-07-06T03:56:20;7.25;;;3.03;;
51382;SDS011;37475;43.358;1.248;2022-07-06T03:59:04;6.10;;;3.33;;
51382;SDS011;37475;43.358;1.248;2022-07-06T04:01:30;9.25;;;2.92;;
51382;SDS011;37475;43.358;1.248;2022-07-06T04:03:56;6.63;;;2.65;;
51382;SDS011;37475;43.358;1.248;2022-07-06T04:06:22;6.35;;;2.67;;
51382;SDS011;37475;43.358;1.248;2022-07-06T04:08:48;5.68;;;3.00;;
51382;SDS011;37475;43.358;1.248;2022-07-06T04:11:14;6.10;;;2.70;;
51382;SDS011;37475;43.358;1.248;2022-07-06T04:13:40;5.20;;;2.95;;
51382;SDS011;37475;43.358;1.248;2022-07-06T04:16:06;5.68;;;2.72;;
51382;SDS011;37475;43.358;1.248;2022-07-06T04:18:32;8.18;;;2.97;;
51382;SDS011;37475;43.358;1.248;2022-07-06T04:20:58;5.50;;;2.70;;
51382;SDS011;37475;43.358;1.248;2022-07-06T04:23:24;10.63;;;2.95;;
51382;SDS011;37475;43.358;1.248;2022-07-06T04:25:51;10.77;;;3.33;;
51382;SDS011;37475;43.358;1.248;2022-07-06T04:28:16;6.78;;;3.13;;
51382;SDS011;37475;43.358;1.248;2022-07-06T04:30:42;6.95;;;3.50;;
51382;SDS011;37475;43.358;1.248;2022-07-06T04:33:08;10.38;;;3.00;;
51382;SDS011;37475;43.358;1.248;2022-07-06T04:35:34;6.75;;;3.10;;
51382;SDS011;37475;43.358;1.248;2022-07-06T04:38:00;9.38;;;2.95;;
51382;SDS011;37475;43.358;1.248;2022-07-06T04:40:26;6.20;;;2.65;;
51382;SDS011;37475;43.358;1.248;2022-07-06T04:42:52;8.23;;;2.90;;
51382;SDS011;37475;43.358;1.248;2022-07-06T04:45:18;6.82;;;2.67;;
51382;SDS011;37475;43.358;1.248;2022-07-06T04:47:44;5.72;;;2.80;;
51382;SDS011;37475;43.358;1.248;2022-07-06T04:50:10;5.53;;;3.00;;
51382;SDS011;37475;43.358;1.248;2022-07-06T04:52:37;6.80;;;2.95;;
51382;SDS011;37475;43.358;1.248;2022-07-06T04:55:03;6.57;;;2.88;;
51382;SDS011;37475;43.358;1.248;2022-07-06T04:57:31;7.18;;;3.08;;
51382;SDS011;37475;43.358;1.248;2022-07-06T04:59:57;10.30;;;3.15;;
51382;SDS011;37475;43.358;1.248;2022-07-06T05:02:23;4.65;;;2.85;;
51382;SDS011;37475;43.358;1.248;2022-07-06T05:04:49;5.50;;;2.83;;
51382;SDS011;37475;43.358;1.248;2022-07-06T05:07:15;5.45;;;2.97;;
51382;SDS011;37475;43.358;1.248;2022-07-06T05:09:41;6.55;;;2.80;;
51382;SDS011;37475;43.358;1.248;2022-07-06T05:12:07;7.53;;;3.80;;
51382;SDS011;37475;43.358;1.248;2022-07-06T05:14:34;7.40;;;3.17;;
51382;SDS011;37475;43.358;1.248;2022-07-06T05:17:01;7.05;;;3.20;;
51382;SDS011;37475;43.358;1.248;2022-07-06T05:19:28;7.30;;;2.97;;
51382;SDS011;37475;43.358;1.248;2022-07-06T05:21:53;6.50;;;3.10;;
51382;SDS011;37475;43.358;1.248;2022-07-06T05:24:20;7.35;;;3.08;;
51382;SDS011;37475;43.358;1.248;2022-07-06T05:26:46;8.32;;;3.33;;
51382;SDS011;37475;43.358;1.248;2022-07-06T05:29:12;6.55;;;3.08;;
51382;SDS011;37475;43.358;1.248;2022-07-06T05:31:38;8.60;;;3.17;;
51382;SDS011;37475;43.358;1.248;2022-07-06T05:34:04;6.82;;;3.53;;
51382;SDS011;37475;43.358;1.248;2022-07-06T05:36:30;5.63;;;3.20;;
51382;SDS011;37475;43.358;1.248;2022-07-06T05:38:55;7.60;;;3.50;;
51382;SDS011;37475;43.358;1.248;2022-07-06T05:41:21;9.70;;;3.78;;
51382;SDS011;37475;43.358;1.248;2022-07-06T05:43:47;7.13;;;3.40;;
51382;SDS011;37475;43.358;1.248;2022-07-06T05:46:13;10.63;;;3.30;;
51382;SDS011;37475;43.358;1.248;2022-07-06T05:48:39;11.23;;;3.65;;
51382;SDS011;37475;43.358;1.248;2022-07-06T05:51:23;10.73;;;3.22;;
51382;SDS011;37475;43.358;1.248;2022-07-06T05:53:49;9.95;;;3.67;;
51382;SDS011;37475;43.358;1.248;2022-07-06T05:56:14;8.77;;;3.53;;
51382;SDS011;37475;43.358;1.248;2022-07-06T05:58:40;7.80;;;3.38;;
51382;SDS011;37475;43.358;1.248;2022-07-06T06:01:06;5.53;;;3.42;;
51382;SDS011;37475;43.358;1.248;2022-07-06T06:03:33;10.88;;;3.00;;
51382;SDS011;37475;43.358;1.248;2022-07-06T06:06:00;6.60;;;3.40;;
51382;SDS011;37475;43.358;1.248;2022-07-06T06:08:25;9.85;;;3.72;;
51382;SDS011;37475;43.358;1.248;2022-07-06T06:10:52;9.25;;;3.13;;
51382;SDS011;37475;43.358;1.248;2022-07-06T06:13:18;10.10;;;3.20;;
51382;SDS011;37475;43.358;1.248;2022-07-06T06:15:44;6.20;;;2.72;;
51382;SDS011;37475;43.358;1.248;2022-07-06T06:18:10;7.10;;;2.92;;
51382;SDS011;37475;43.358;1.248;2022-07-06T06:20:36;5.35;;;2.83;;
51382;SDS011;37475;43.358;1.248;2022-07-06T06:23:02;6.75;;;3.05;;
51382;SDS011;37475;43.358;1.248;2022-07-06T06:28:01;5.53;;;2.40;;
51382;SDS011;37475;43.358;1.248;2022-07-06T06:30:29;8.82;;;2.92;;
51382;SDS011;37475;43.358;1.248;2022-07-06T06:35:30;5.35;;;2.72;;
51382;SDS011;37475;43.358;1.248;2022-07-06T06:37:56;7.60;;;2.80;;
51382;SDS011;37475;43.358;1.248;2022-07-06T06:40:22;7.00;;;2.80;;
51382;SDS011;37475;43.358;1.248;2022-07-06T06:42:48;7.25;;;2.95;;
51382;SDS011;37475;43.358;1.248;2022-07-06T06:45:14;7.97;;;2.63;;
51382;SDS011;37475;43.358;1.248;2022-07-06T06:47:40;13.82;;;2.92;;
51382;SDS011;37475;43.358;1.248;2022-07-06T06:50:06;18.73;;;4.03;;
51382;SDS011;37475;43.358;1.248;2022-07-06T06:52:32;7.47;;;2.70;;
51382;SDS011;37475;43.358;1.248;2022-07-06T06:54:58;5.90;;;2.67;;
51382;SDS011;37475;43.358;1.248;2022-07-06T06:57:24;8.32;;;2.65;;
51382;SDS011;37475;43.358;1.248;2022-07-06T06:59:50;6.03;;;2.83;;
51382;SDS011;37475;43.358;1.248;2022-07-06T07:02:16;4.78;;;2.38;;
51382;SDS011;37475;43.358;1.248;2022-07-06T07:04:42;7.28;;;2.60;;
51382;SDS011;37475;43.358;1.248;2022-07-06T07:07:08;6.57;;;2.40;;
51382;SDS011;37475;43.358;1.248;2022-07-06T07:09:35;5.00;;;2.33;;
51382;SDS011;37475;43.358;1.248;2022-07-06T07:12:00;4.05;;;2.25;;
51382;SDS011;37475;43.358;1.248;2022-07-06T07:14:26;5.82;;;2.22;;
51382;SDS011;37475;43.358;1.248;2022-07-06T07:16:52;7.45;;;2.30;;
51382;SDS011;37475;43.358;1.248;2022-07-06T07:19:18;7.97;;;2.35;;
51382;SDS011;37475;43.358;1.248;2022-07-06T07:21:44;6.13;;;2.17;;
51382;SDS011;37475;43.358;1.248;2022-07-06T07:24:10;5.45;;;2.50;;
51382;SDS011;37475;43.358;1.248;2022-07-06T07:26:36;5.32;;;2.60;;
51382;SDS011;37475;43.358;1.248;2022-07-06T07:29:02;5.45;;;2.10;;
51382;SDS011;37475;43.358;1.248;2022-07-06T07:31:28;6.40;;;2.28;;
51382;SDS011;37475;43.358;1.248;2022-07-06T07:33:54;4.30;;;2.17;;
51382;SDS011;37475;43.358;1.248;2022-07-06T07:36:22;5.15;;;2.20;;
51382;SDS011;37475;43.358;1.248;2022-07-06T07:38:49;6.85;;;2.40;;
51382;SDS011;37475;43.358;1.248;2022-07-06T07:41:15;4.57;;;2.20;;
51382;SDS011;37475;43.358;1.248;2022-07-06T07:43:42;4.63;;;2.17;;
51382;SDS011;37475;43.358;1.248;2022-07-06T07:46:08;6.22;;;2.50;;
51382;SDS011;37475;43.358;1.248;2022-07-06T07:48:34;6.95;;;2.28;;
51382;SDS011;37475;43.358;1.248;2022-07-06T07:51:00;7.43;;;2.20;;
51382;SDS011;37475;43.358;1.248;2022-07-06T07:53:26;11.00;;;2.30;;
51382;SDS011;37475;43.358;1.248;2022-07-06T07:55:52;6.50;;;2.35;;
51382;SDS011;37475;43.358;1.248;2022-07-06T07:58:18;6.95;;;2.40;;
51382;SDS011;37475;43.358;1.248;2022-07-06T08:00:44;5.72;;;2.28;;
51382;SDS011;37475;43.358;1.248;2022-07-06T08:03:11;9.95;;;2.20;;
51382;SDS011;37475;43.358;1.248;2022-07-06T08:05:37;8.13;;;2.05;;
51382;SDS011;37475;43.358;1.248;2022-07-06T08:08:03;6.43;;;2.10;;
51382;SDS011;37475;43.358;1.248;2022-07-06T08:10:30;4.72;;;1.92;;
51382;SDS011;37475;43.358;1.248;2022-07-06T08:12:56;5.82;;;2.20;;
51382;SDS011;37475;43.358;1.248;2022-07-06T08:15:22;4.53;;;2.13;;
51382;SDS011;37475;43.358;1.248;2022-07-06T08:17:48;7.20;;;2.10;;
51382;SDS011;37475;43.358;1.248;2022-07-06T08:20:14;5.70;;;2.33;;
51382;SDS011;37475;43.358;1.248;2022-07-06T08:22:41;7.93;;;2.08;;
51382;SDS011;37475;43.358;1.248;2022-07-06T08:25:08;8.88;;;2.22;;
51382;SDS011;37475;43.358;1.248;2022-07-06T08:27:34;6.88;;;2.10;;
51382;SDS011;37475;43.358;1.248;2022-07-06T08:30:01;6.47;;;2.38;;
51382;SDS011;37475;43.358;1.248;2022-07-06T08:32:29;6.90;;;2.13;;
51382;SDS011;37475;43.358;1.248;2022-07-06T08:34:55;6.43;;;2.00;;
51382;SDS011;37475;43.358;1.248;2022-07-06T08:37:21;6.68;;;2.05;;
51382;SDS011;37475;43.358;1.248;2022-07-06T08:39:46;8.48;;;2.33;;
51382;SDS011;37475;43.358;1.248;2022-07-06T08:42:12;5.65;;;2.30;;
51382;SDS011;37475;43.358;1.248;2022-07-06T08:44:41;4.90;;;2.55;;
51382;SDS011;37475;43.358;1.248;2022-07-06T08:47:07;7.07;;;2.20;;
51382;SDS011;37475;43.358;1.248;2022-07-06T08:49:34;4.47;;;2.03;;
51382;SDS011;37475;43.358;1.248;2022-07-06T08:52:02;5.47;;;2.40;;
51382;SDS011;37475;43.358;1.248;2022-07-06T08:54:29;7.57;;;2.50;;
51382;SDS011;37475;43.358;1.248;2022-07-06T08:56:56;5.25;;;1.92;;
51382;SDS011;37475;43.358;1.248;2022-07-06T08:59:22;7.85;;;2.47;;
51382;SDS011;37475;43.358;1.248;2022-07-06T09:01:48;4.82;;;2.17;;
51382;SDS011;37475;43.358;1.248;2022-07-06T09:04:17;9.60;;;2.17;;
51382;SDS011;37475;43.358;1.248;2022-07-06T09:06:47;14.80;;;2.17;;
51382;SDS011;37475;43.358;1.248;2022-07-06T09:09:15;7.28;;;2.28;;
51382;SDS011;37475;43.358;1.248;2022-07-06T09:14:12;4.47;;;2.20;;
51382;SDS011;37475;43.358;1.248;2022-07-06T09:16:39;9.38;;;2.47;;
51382;SDS011;37475;43.358;1.248;2022-07-06T09:19:10;7.68;;;2.05;;
51382;SDS011;37475;43.358;1.248;2022-07-06T09:21:36;5.65;;;2.10;;
51382;SDS011;37475;43.358;1.248;2022-07-06T09:24:11;5.13;;;2.13;;
51382;SDS011;37475;43.358;1.248;2022-07-06T09:26:38;8.00;;;2.17;;
51382;SDS011;37475;43.358;1.248;2022-07-06T09:29:06;7.63;;;2.10;;
51382;SDS011;37475;43.358;1.248;2022-07-06T09:31:32;6.00;;;2.05;;
51382;SDS011;37475;43.358;1.248;2022-07-06T09:33:59;9.73;;;2.10;;
51382;SDS011;37475;43.358;1.248;2022-07-06T09:36:40;5.03;;;2.00;;
51382;SDS011;37475;43.358;1.248;2022-07-06T09:39:19;7.35;;;2.20;;
51382;SDS011;37475;43.358;1.248;2022-07-06T09:41:51;7.60;;;2.13;;
51382;SDS011;37475;43.358;1.248;2022-07-06T09:44:26;5.50;;;2.00;;
51382;SDS011;37475;43.358;1.248;2022-07-06T09:47:01;7.55;;;2.10;;
51382;SDS011;37475;43.358;1.248;2022-07-06T09:49:30;14.93;;;3.05;;
51382;SDS011;37475;43.358;1.248;2022-07-06T09:52:01;6.90;;;2.03;;
51382;SDS011;37475;43.358;1.248;2022-07-06T09:54:29;5.60;;;2.15;;
51382;SDS011;37475;43.358;1.248;2022-07-06T09:56:56;6.30;;;2.00;;
51382;SDS011;37475;43.358;1.248;2022-07-06T09:59:26;5.90;;;1.95;;
51382;SDS011;37475;43.358;1.248;2022-07-06T10:02:01;7.68;;;2.20;;
51382;SDS011;37475;43.358;1.248;2022-07-06T10:04:32;5.50;;;2.28;;
51382;SDS011;37475;43.358;1.248;2022-07-06T10:06:59;8.73;;;2.33;;
51382;SDS011;37475;43.358;1.248;2022-07-06T10:09:26;8.05;;;2.58;;
51382;SDS011;37475;43.358;1.248;2022-07-06T10:11:58;6.88;;;2.20;;
51382;SDS011;37475;43.358;1.248;2022-07-06T10:14:27;8.07;;;1.90;;
51382;SDS011;37475;43.358;1.248;2022-07-06T10:16:56;6.72;;;2.00;;
51382;SDS011;37475;43.358;1.248;2022-07-06T10:19:24;6.10;;;2.15;;
51382;SDS011;37475;43.358;1.248;2022-07-06T10:21:52;6.88;;;2.10;;
51382;SDS011;37475;43.358;1.248;2022-07-06T10:24:21;5.32;;;1.90;;
51382;SDS011;37475;43.358;1.248;2022-07-06T10:26:47;6.63;;;2.70;;
51382;SDS011;37475;43.358;1.248;2022-07-06T10:29:14;8.48;;;2.03;;
51382;SDS011;37475;43.358;1.248;2022-07-06T10:31:40;7.40;;;2.05;;
51382;SDS011;37475;43.358;1.248;2022-07-06T10:34:11;6.72;;;2.08;;
51382;SDS011;37475;43.358;1.248;2022-07-06T10:36:40;6.85;;;2.05;;
51382;SDS011;37475;43.358;1.248;2022-07-06T10:39:08;6.05;;;1.88;;
51382;SDS011;37475;43.358;1.248;2022-07-06T10:41:54;5.65;;;1.73;;
51382;SDS011;37475;43.358;1.248;2022-07-06T10:44:21;5.88;;;1.90;;
51382;SDS011;37475;43.358;1.248;2022-07-06T10:46:52;6.75;;;1.80;;
51382;SDS011;37475;43.358;1.248;2022-07-06T10:49:24;6.35;;;1.90;;
51382;SDS011;37475;43.358;1.248;2022-07-06T10:51:52;6.03;;;2.40;;
51382;SDS011;37475;43.358;1.248;2022-07-06T10:54:19;4.70;;;1.90;;
51382;SDS011;37475;43.358;1.248;2022-07-06T10:56:49;7.78;;;2.47;;
51382;SDS011;37475;43.358;1.248;2022-07-06T10:59:23;4.63;;;1.80;;
51382;SDS011;37475;43.358;1.248;2022-07-06T11:04:47;4.57;;;2.05;;
51382;SDS011;37475;43.358;1.248;2022-07-06T11:07:15;3.83;;;1.50;;
51382;SDS011;37475;43.358;1.248;2022-07-06T11:09:56;5.90;;;1.90;;
51382;SDS011;37475;43.358;1.248;2022-07-06T11:12:24;4.35;;;1.83;;
51382;SDS011;37475;43.358;1.248;2022-07-06T11:14:51;7.25;;;1.80;;
51382;SDS011;37475;43.358;1.248;2022-07-06T11:17:18;4.25;;;1.67;;
51382;SDS011;37475;43.358;1.248;2022-07-06T11:19:48;5.55;;;1.90;;
51382;SDS011;37475;43.358;1.248;2022-07-06T11:22:16;5.35;;;1.67;;
51382;SDS011;37475;43.358;1.248;2022-07-06T11:24:44;3.55;;;1.40;;
51382;SDS011;37475;43.358;1.248;2022-07-06T11:27:10;5.75;;;1.90;;
51382;SDS011;37475;43.358;1.248;2022-07-06T11:29:38;6.60;;;1.58;;
51382;SDS011;37475;43.358;1.248;2022-07-06T11:32:04;3.92;;;1.35;;
51382;SDS011;37475;43.358;1.248;2022-07-06T11:34:36;5.32;;;1.77;;
51382;SDS011;37475;43.358;1.248;2022-07-06T11:37:15;5.35;;;1.80;;
51382;SDS011;37475;43.358;1.248;2022-07-06T11:39:43;5.90;;;1.48;;
51382;SDS011;37475;43.358;1.248;2022-07-06T11:42:12;6.45;;;1.38;;
51382;SDS011;37475;43.358;1.248;2022-07-06T11:44:42;3.33;;;1.50;;
51382;SDS011;37475;43.358;1.248;2022-07-06T11:47:10;3.47;;;1.30;;
51382;SDS011;37475;43.358;1.248;2022-07-06T11:49:38;3.47;;;1.45;;
51382;SDS011;37475;43.358;1.248;2022-07-06T11:52:08;4.07;;;1.63;;
51382;SDS011;37475;43.358;1.248;2022-07-06T11:54:41;4.78;;;1.50;;
51382;SDS011;37475;43.358;1.248;2022-07-06T11:57:09;5.35;;;1.77;;
51382;SDS011;37475;43.358;1.248;2022-07-06T11:59:37;7.20;;;1.60;;
51382;SDS011;37475;43.358;1.248;2022-07-06T12:04:36;4.90;;;1.30;;
51382;SDS011;37475;43.358;1.248;2022-07-06T12:07:05;4.30;;;1.55;;
51382;SDS011;37475;43.358;1.248;2022-07-06T12:09:39;3.35;;;1.30;;
51382;SDS011;37475;43.358;1.248;2022-07-06T12:12:07;6.97;;;1.40;;
51382;SDS011;37475;43.358;1.248;2022-07-06T12:14:35;4.35;;;1.50;;
51382;SDS011;37475;43.358;1.248;2022-07-06T12:17:07;5.18;;;1.60;;
51382;SDS011;37475;43.358;1.248;2022-07-06T12:19:38;4.22;;;1.40;;
51382;SDS011;37475;43.358;1.248;2022-07-06T12:22:05;3.00;;;1.27;;
51382;SDS011;37475;43.358;1.248;2022-07-06T12:24:32;5.30;;;1.50;;
51382;SDS011;37475;43.358;1.248;2022-07-06T12:27:13;7.25;;;1.35;;
51382;SDS011;37475;43.358;1.248;2022-07-06T12:29:41;5.82;;;1.67;;
51382;SDS011;37475;43.358;1.248;2022-07-06T12:32:13;4.15;;;1.30;;
51382;SDS011;37475;43.358;1.248;2022-07-06T12:34:44;3.03;;;1.30;;
51382;SDS011;37475;43.358;1.248;2022-07-06T12:37:10;7.45;;;1.25;;
51382;SDS011;37475;43.358;1.248;2022-07-06T12:39:42;4.15;;;1.40;;
51382;SDS011;37475;43.358;1.248;2022-07-06T12:42:16;5.25;;;1.20;;
51382;SDS011;37475;43.358;1.248;2022-07-06T12:44:44;5.05;;;1.42;;
51382;SDS011;37475;43.358;1.248;2022-07-06T12:47:20;3.35;;;1.30;;
51382;SDS011;37475;43.358;1.248;2022-07-06T12:49:49;5.03;;;1.30;;
51382;SDS011;37475;43.358;1.248;2022-07-06T12:52:33;4.85;;;1.50;;
51382;SDS011;37475;43.358;1.248;2022-07-06T12:55:01;5.25;;;1.50;;
51382;SDS011;37475;43.358;1.248;2022-07-06T12:57:41;5.00;;;1.30;;
51382;SDS011;37475;43.358;1.248;2022-07-06T13:00:09;14.48;;;1.40;;
51382;SDS011;37475;43.358;1.248;2022-07-06T13:02:36;2.65;;;1.20;;
51382;SDS011;37475;43.358;1.248;2022-07-06T13:05:06;4.32;;;1.30;;
51382;SDS011;37475;43.358;1.248;2022-07-06T13:07:35;3.72;;;1.20;;
51382;SDS011;37475;43.358;1.248;2022-07-06T13:10:04;10.82;;;1.15;;
51382;SDS011;37475;43.358;1.248;2022-07-06T13:12:32;3.00;;;1.20;;
51382;SDS011;37475;43.358;1.248;2022-07-06T13:14:59;4.43;;;1.00;;
51382;SDS011;37475;43.358;1.248;2022-07-06T13:17:25;3.28;;;1.30;;
51382;SDS011;37475;43.358;1.248;2022-07-06T13:19:51;4.53;;;1.30;;
51382;SDS011;37475;43.358;1.248;2022-07-06T13:22:17;4.32;;;1.25;;
51382;SDS011;37475;43.358;1.248;2022-07-06T13:24:43;4.97;;;1.30;;
51382;SDS011;37475;43.358;1.248;2022-07-06T13:27:09;8.27;;;1.35;;
51382;SDS011;37475;43.358;1.248;2022-07-06T13:29:36;4.15;;;1.10;;
51382;SDS011;37475;43.358;1.248;2022-07-06T13:32:02;3.17;;;0.98;;
51382;SDS011;37475;43.358;1.248;2022-07-06T13:34:32;6.50;;;1.30;;
51382;SDS011;37475;43.358;1.248;2022-07-06T13:37:00;4.28;;;0.93;;
51382;SDS011;37475;43.358;1.248;2022-07-06T13:39:27;2.88;;;1.20;;
51382;SDS011;37475;43.358;1.248;2022-07-06T13:41:53;4.93;;;1.20;;
51382;SDS011;37475;43.358;1.248;2022-07-06T13:44:20;1.83;;;0.80;;
51382;SDS011;37475;43.358;1.248;2022-07-06T13:46:46;14.93;;;1.30;;
51382;SDS011;37475;43.358;1.248;2022-07-06T13:49:12;4.03;;;1.00;;
51382;SDS011;37475;43.358;1.248;2022-07-06T13:51:38;4.05;;;1.25;;
51382;SDS011;37475;43.358;1.248;2022-07-06T13:54:04;3.00;;;0.90;;
51382;SDS011;37475;43.358;1.248;2022-07-06T13:56:30;4.43;;;0.90;;
51382;SDS011;37475;43.358;1.248;2022-07-06T13:58:56;1.88;;;0.70;;
51382;SDS011;37475;43.358;1.248;2022-07-06T14:01:22;3.97;;;1.00;;
51382;SDS011;37475;43.358;1.248;2022-07-06T14:03:48;3.67;;;0.95;;
51382;SDS011;37475;43.358;1.248;2022-07-06T14:06:14;2.53;;;1.00;;
51382;SDS011;37475;43.358;1.248;2022-07-06T14:08:41;2.05;;;0.70;;
51382;SDS011;37475;43.358;1.248;2022-07-06T14:11:08;4.15;;;1.00;;
51382;SDS011;37475;43.358;1.248;2022-07-06T14:13:35;4.22;;;0.98;;
51382;SDS011;37475;43.358;1.248;2022-07-06T14:16:02;3.95;;;0.90;;
51382;SDS011;37475;43.358;1.248;2022-07-06T14:18:29;4.38;;;1.25;;
51382;SDS011;37475;43.358;1.248;2022-07-06T14:20:55;2.78;;;0.90;;
51382;SDS011;37475;43.358;1.248;2022-07-06T14:23:21;2.53;;;0.90;;
51382;SDS011;37475;43.358;1.248;2022-07-06T14:25:48;2.92;;;0.80;;
51382;SDS011;37475;43.358;1.248;2022-07-06T14:28:14;4.28;;;1.00;;
51382;SDS011;37475;43.358;1.248;2022-07-06T14:30:42;2.67;;;1.00;;
51382;SDS011;37475;43.358;1.248;2022-07-06T14:33:10;2.60;;;1.20;;
51382;SDS011;37475;43.358;1.248;2022-07-06T14:35:39;1.70;;;1.00;;
51382;SDS011;37475;43.358;1.248;2022-07-06T14:38:08;3.78;;;1.13;;
51382;SDS011;37475;43.358;1.248;2022-07-06T14:40:34;2.50;;;0.93;;
51382;SDS011;37475;43.358;1.248;2022-07-06T14:43:01;2.17;;;0.80;;
51382;SDS011;37475;43.358;1.248;2022-07-06T14:45:28;6.80;;;1.27;;
51382;SDS011;37475;43.358;1.248;2022-07-06T14:47:55;3.35;;;1.00;;
51382;SDS011;37475;43.358;1.248;2022-07-06T14:50:21;4.63;;;1.02;;
51382;SDS011;37475;43.358;1.248;2022-07-06T14:52:51;1.90;;;1.00;;
51382;SDS011;37475;43.358;1.248;2022-07-06T14:55:18;4.43;;;0.93;;
51382;SDS011;37475;43.358;1.248;2022-07-06T14:57:44;2.80;;;0.80;;
51382;SDS011;37475;43.358;1.248;2022-07-06T15:00:11;2.20;;;0.88;;